createdAt,value
2022-11-23T00:04:45.237Z,100.00
2022-11-23T00:09:37.048Z,100.00
2022-11-23T00:14:28.822Z,100.00
2022-11-23T00:19:20.532Z,100.00
2022-11-23T00:24:13.442Z,100.00
2022-11-23T00:29:05.123Z,100.00
2022-11-23T00:33:57.969Z,100.00
2022-11-23T00:38:50.643Z,100.00
2022-11-23T00:43:43.396Z,100.00
2022-11-23T00:48:35.487Z,100.00
2022-11-23T00:53:27.665Z,100.00
2022-11-23T00:58:19.380Z,100.00
2022-11-23T01:03:11.078Z,100.00
2022-11-23T01:08:03.349Z,100.00
2022-11-23T01:12:54.969Z,100.00
2022-11-23T01:17:46.781Z,100.00
2022-11-23T01:22:38.480Z,100.00
2022-11-23T01:27:30.197Z,100.00
2022-11-23T01:32:21.861Z,100.00
2022-11-23T01:37:13.556Z,100.00
2022-11-23T01:42:08.167Z,100.00
2022-11-23T01:47:02.400Z,100.00
2022-11-23T01:51:58.077Z,100.00
2022-11-23T01:57:04.880Z,100.00
2022-11-23T02:01:56.825Z,100.00
2022-11-23T02:06:48.711Z,100.00
2022-11-23T02:11:40.421Z,100.00
2022-11-23T02:16:32.285Z,100.00
2022-11-23T02:21:24.348Z,100.00
2022-11-23T02:26:42.516Z,100.00
2022-11-23T02:31:34.229Z,100.00
2022-11-23T02:36:34.670Z,100.00
2022-11-23T02:41:26.371Z,100.00
2022-11-23T02:46:18.238Z,100.00
2022-11-23T02:51:09.849Z,100.00
2022-11-23T02:56:01.596Z,100.00
2022-11-23T03:00:53.309Z,100.00
2022-11-23T03:05:45.120Z,100.00
2022-11-23T03:10:37.155Z,100.00
2022-11-23T03:15:28.814Z,100.00
2022-11-23T03:20:20.798Z,100.00
2022-11-23T03:25:12.552Z,100.00
2022-11-23T03:30:04.943Z,100.00
2022-11-23T03:34:56.660Z,100.00
2022-11-23T03:39:48.323Z,100.00
2022-11-23T03:44:40.041Z,100.00
2022-11-23T03:49:31.884Z,100.00
2022-11-23T03:54:23.746Z,100.00
2022-11-23T03:59:15.645Z,100.00
2022-11-23T04:04:07.427Z,100.00
2022-11-23T04:09:02.220Z,100.00
2022-11-23T04:13:54.315Z,100.00
2022-11-23T04:18:45.876Z,100.00
2022-11-23T04:23:37.550Z,100.00
2022-11-23T04:28:29.341Z,100.00
2022-11-23T04:33:21.010Z,100.00
2022-11-23T04:38:12.751Z,100.00
2022-11-23T04:43:04.773Z,100.00
2022-11-23T04:47:56.540Z,100.00
2022-11-23T04:52:48.260Z,100.00
2022-11-23T04:57:40.026Z,100.00
2022-11-23T05:02:31.820Z,100.00
2022-11-23T05:07:23.570Z,100.00
2022-11-23T05:12:15.259Z,100.00
2022-11-23T05:17:06.985Z,100.00
2022-11-23T05:21:58.701Z,100.00
2022-11-23T05:26:54.871Z,100.00
2022-11-23T05:31:48.008Z,100.00
2022-11-23T05:36:42.397Z,100.00
2022-11-23T05:41:34.246Z,100.00
2022-11-23T05:46:25.983Z,100.00
2022-11-23T05:51:17.639Z,100.00
2022-11-23T05:56:09.539Z,100.00
2022-11-23T06:01:02.118Z,100.00
2022-11-23T06:05:53.901Z,100.00
2022-11-23T06:10:45.608Z,100.00
2022-11-23T06:15:37.623Z,100.00
2022-11-23T06:20:30.017Z,100.00
2022-11-23T06:25:22.348Z,100.00
2022-11-23T06:30:14.674Z,100.00
2022-11-23T06:35:06.645Z,100.00
2022-11-23T06:39:58.385Z,100.00
2022-11-23T06:44:50.145Z,100.00
2022-11-23T06:49:41.856Z,100.00
2022-11-23T06:54:33.457Z,100.00
2022-11-23T06:59:25.167Z,100.00
2022-11-23T07:04:16.966Z,100.00
2022-11-23T07:09:09.609Z,100.00
2022-11-23T07:14:01.166Z,100.00
2022-11-23T07:18:52.890Z,100.00
2022-11-23T07:23:44.656Z,100.00
2022-11-23T07:28:36.297Z,100.00
2022-11-23T07:33:28.113Z,100.00
2022-11-23T07:38:19.852Z,100.00
2022-11-23T07:43:11.570Z,100.00
2022-11-23T07:48:07.473Z,100.00
2022-11-23T07:52:59.270Z,100.00
2022-11-23T07:57:54.997Z,100.00
2022-11-23T08:03:11.285Z,100.00
2022-11-23T08:08:02.851Z,100.00
2022-11-23T08:12:58.454Z,100.00
2022-11-23T08:17:55.140Z,100.00
2022-11-23T08:22:46.973Z,100.00
2022-11-23T08:27:38.693Z,100.00
2022-11-23T08:32:30.420Z,100.00
2022-11-23T08:37:22.263Z,100.00
2022-11-23T08:42:14.028Z,100.00
2022-11-23T08:47:06.288Z,100.00
2022-11-23T08:51:58.231Z,100.00
2022-11-23T08:56:51.418Z,100.00
2022-11-23T09:01:44.165Z,100.00
2022-11-23T09:06:35.971Z,100.00
2022-11-23T09:11:27.816Z,100.00
2022-11-23T09:16:19.571Z,100.00
2022-11-23T09:21:11.372Z,100.00
2022-11-23T09:26:04.914Z,100.00
2022-11-23T09:30:57.480Z,100.00
2022-11-23T09:36:00.181Z,100.00
2022-11-23T09:41:16.794Z,100.00
2022-11-23T09:46:22.314Z,100.00
2022-11-23T09:51:19.616Z,100.00
2022-11-23T09:56:19.360Z,100.00
2022-11-23T10:01:16.757Z,100.00
2022-11-23T10:06:28.235Z,100.00
2022-11-23T10:11:45.152Z,100.00
2022-11-23T10:16:42.141Z,100.00
2022-11-23T10:21:55.799Z,100.00
2022-11-23T10:26:50.116Z,97.85
2022-11-23T10:31:47.114Z,94.18
2022-11-23T10:36:40.027Z,95.05
2022-11-23T10:41:56.324Z,91.73
2022-11-23T10:46:48.765Z,87.70
2022-11-23T10:51:41.339Z,87.72
2022-11-23T10:56:35.188Z,84.09
2022-11-23T11:01:29.745Z,85.19
2022-11-23T11:06:26.959Z,85.40
2022-11-23T11:11:27.230Z,83.24
2022-11-23T11:16:38.384Z,79.92
2022-11-23T11:21:34.586Z,80.13
2022-11-23T11:26:28.442Z,78.81
2022-11-23T11:31:32.417Z,76.54
2022-11-23T11:36:28.723Z,75.27
2022-11-23T11:41:25.579Z,75.66
2022-11-23T11:46:30.904Z,75.83
2022-11-23T11:51:33.151Z,75.68
2022-11-23T11:56:34.966Z,76.16
2022-11-23T12:01:36.358Z,75.02
2022-11-23T12:06:40.203Z,75.86
2022-11-23T12:11:33.152Z,78.06
2022-11-23T12:16:24.917Z,77.93
2022-11-23T12:21:35.587Z,76.59
2022-11-23T12:27:09.606Z,78.14
2022-11-23T12:32:43.098Z,78.23
2022-11-23T12:37:40.621Z,78.68
2022-11-23T12:42:58.533Z,80.47
2022-11-23T12:48:20.887Z,80.23
2022-11-23T12:53:36.984Z,83.59
2022-11-23T12:58:30.877Z,85.17
2022-11-23T13:03:22.753Z,83.49
2022-11-23T13:08:30.398Z,84.68
2022-11-23T13:13:33.744Z,86.24
2022-11-23T13:19:04.901Z,87.14
2022-11-23T13:23:57.294Z,87.60
2022-11-23T13:28:53.169Z,87.72
2022-11-23T13:33:48.048Z,87.34
2022-11-23T13:38:42.161Z,86.28
2022-11-23T13:43:37.158Z,81.14
2022-11-23T13:48:57.982Z,80.90
2022-11-23T13:53:43.265Z,80.44
2022-11-23T13:58:39.663Z,80.85
2022-11-23T14:03:44.221Z,78.80
2022-11-23T14:08:38.601Z,78.95
2022-11-23T14:13:33.987Z,80.24
2022-11-23T14:18:49.242Z,80.61
2022-11-23T14:23:44.229Z,80.09
2022-11-23T14:28:57.278Z,80.91
2022-11-23T14:34:21.315Z,81.60
2022-11-23T14:39:28.020Z,81.09
2022-11-23T14:44:25.674Z,81.19
2022-11-23T14:49:17.637Z,81.24
2022-11-23T14:54:11.285Z,82.00
2022-11-23T14:59:11.048Z,81.30
2022-11-23T15:04:21.451Z,82.43
2022-11-23T15:09:19.753Z,81.46
2022-11-23T15:14:20.520Z,81.92
2022-11-23T15:19:38.784Z,83.39
2022-11-23T15:24:31.015Z,84.05
2022-11-23T15:29:35.588Z,85.13
2022-11-23T15:34:28.421Z,84.85
2022-11-23T15:39:24.183Z,85.09
2022-11-23T15:44:23.959Z,86.59
2022-11-23T15:49:16.781Z,88.00
2022-11-23T15:54:28.271Z,88.07
2022-11-23T15:59:29.091Z,88.29
2022-11-23T16:04:31.439Z,87.96
2022-11-23T16:09:54.317Z,88.66
2022-11-23T16:14:46.220Z,88.29
2022-11-23T16:19:38.038Z,90.12
2022-11-23T16:24:32.542Z,91.96
2022-11-23T16:29:27.237Z,93.73
2022-11-23T16:34:19.708Z,94.84
2022-11-23T16:39:12.018Z,95.51
2022-11-23T16:44:04.270Z,95.96
2022-11-23T16:48:59.174Z,96.15
2022-11-23T16:54:12.893Z,96.16
2022-11-23T16:59:02.775Z,97.28
2022-11-23T17:03:54.541Z,97.62
2022-11-23T17:08:46.619Z,97.32
2022-11-23T17:13:38.419Z,97.29
2022-11-23T17:18:30.072Z,96.68
2022-11-23T17:23:22.522Z,96.59
2022-11-23T17:28:22.541Z,95.90
2022-11-23T17:33:14.514Z,95.86
2022-11-23T17:38:08.097Z,96.04
2022-11-23T17:42:59.741Z,96.63
2022-11-23T17:47:51.719Z,96.88
2022-11-23T17:52:47.784Z,96.29
2022-11-23T17:57:39.950Z,96.44
2022-11-23T18:02:31.697Z,95.94
2022-11-23T18:07:23.608Z,96.12
2022-11-23T18:12:15.401Z,95.68
2022-11-23T18:17:07.220Z,95.40
2022-11-23T18:21:59.243Z,95.87
2022-11-23T18:26:50.962Z,94.87
2022-11-23T18:31:42.928Z,95.56
2022-11-23T18:36:34.547Z,94.82
2022-11-23T18:41:26.293Z,95.27
2022-11-23T18:46:19.155Z,95.36
2022-11-23T18:51:13.459Z,94.77
2022-11-23T18:56:06.919Z,93.08
2022-11-23T19:00:58.645Z,93.49
2022-11-23T19:05:50.535Z,92.30
2022-11-23T19:10:42.286Z,91.88
2022-11-23T19:15:34.383Z,91.43
2022-11-23T19:20:26.259Z,90.39
2022-11-23T19:25:19.447Z,90.14
2022-11-23T19:30:13.842Z,90.29
2022-11-23T19:35:06.214Z,89.64
2022-11-23T19:39:58.083Z,90.01
2022-11-23T19:44:49.942Z,89.77
2022-11-23T19:49:42.583Z,90.79
2022-11-23T19:54:35.657Z,91.40
2022-11-23T19:59:27.843Z,91.71
2022-11-23T20:04:19.471Z,92.55
2022-11-23T20:09:17.300Z,92.40
2022-11-23T20:14:11.832Z,92.91
2022-11-23T20:19:08.219Z,93.18
2022-11-23T20:24:05.210Z,93.50
2022-11-23T20:28:59.258Z,93.48
2022-11-23T20:33:51.665Z,93.78
2022-11-23T20:38:43.988Z,93.69
2022-11-23T20:43:35.615Z,93.36
2022-11-23T20:48:27.777Z,93.65
2022-11-23T20:53:19.514Z,94.35
2022-11-23T20:58:11.430Z,94.67
2022-11-23T21:03:03.232Z,95.35
2022-11-23T21:07:55.154Z,95.37
2022-11-23T21:13:05.619Z,95.99
2022-11-23T21:17:57.535Z,96.72
2022-11-23T21:22:49.190Z,97.57
2022-11-23T21:27:40.833Z,97.98
2022-11-23T21:32:32.551Z,98.59
2022-11-23T21:37:26.081Z,99.32
2022-11-23T21:42:17.775Z,99.42
2022-11-23T21:47:09.475Z,100.00
2022-11-23T21:52:01.397Z,99.40
2022-11-23T21:56:53.014Z,100.00
2022-11-23T22:01:44.856Z,100.00
2022-11-23T22:06:38.235Z,100.00
2022-11-23T22:11:32.438Z,99.79
2022-11-23T22:16:27.268Z,99.93
2022-11-23T22:21:20.705Z,99.92
2022-11-23T22:26:17.493Z,99.97
2022-11-23T22:31:12.128Z,100.00
2022-11-23T22:36:07.131Z,100.00
2022-11-23T22:41:00.170Z,100.00
2022-11-23T22:45:52.023Z,99.46
2022-11-23T22:50:46.526Z,99.26
2022-11-23T22:55:38.646Z,98.82
2022-11-23T23:00:30.400Z,99.48
2022-11-23T23:05:22.041Z,98.58
2022-11-23T23:10:13.945Z,98.13
2022-11-23T23:15:06.008Z,98.84
2022-11-23T23:19:57.748Z,98.16
2022-11-23T23:24:49.611Z,98.94
2022-11-23T23:29:41.386Z,98.98
2022-11-23T23:34:33.178Z,98.70
2022-11-23T23:39:25.008Z,98.56
2022-11-23T23:44:16.847Z,98.02
2022-11-23T23:49:08.640Z,97.58
2022-11-23T23:54:00.328Z,97.90
2022-11-23T23:58:52.755Z,97.63
